This is the latest recevied weather packets stored in our database for station/object N3FAA. If no packets are shown the sender has not sent any weather packets the latest 1 day(s).
| Time | Temp. | Humidity | Pressure | Rain* | Wind** | Luminosity | Snow |
|---|---|---|---|---|---|---|---|
| 1778096766 | 26.11° C | 27% | 1014.3 hPa | 0 mm | - | 756 W/m² | - |
| 1778096462 | 26.11° C | 27% | 1014.3 hPa | 0 mm | - | 820 W/m² | - |
| 1778096160 | 26.67° C | 27% | 1014.3 hPa | 0 mm | - | 870 W/m² | - |
| 1778095857 | 25.56° C | 28% | 1014.5 hPa | 0 mm | - | 884 W/m² | - |
| 1778094946 | 25° C | 29% | 1014.4 hPa | 0 mm | - | 779 W/m² | - |
| 1778094642 | 25° C | 30% | 1014.6 hPa | 0 mm | - | 769 W/m² | - |
| 1778092825 | 23.89° C | 32% | 1014.7 hPa | 0 mm | - | 900 W/m² | - |
| 1778090096 | 22.22° C | 36% | 1014.7 hPa | 0 mm | - | 994 W/m² | - |
| 1778089491 | 21.67° C | 38% | 1015.2 hPa | 0 mm | - | 968 W/m² | - |
| 1778088279 | 21.67° C | 38% | 1015 hPa | 0 mm | - | 816 W/m² | - |
| 1778086147 | 19.44° C | 42% | 1015.2 hPa | 0 mm | - | 780 W/m² | - |
| 1778085236 | 18.89° C | 44% | 1015.3 hPa | 0 mm | - | 703 W/m² | - |
| 1778084931 | 18.33° C | 46% | 1015 hPa | 0 mm | - | 671 W/m² | - |
| 1778084327 | 18.33° C | 46% | 1015.1 hPa | 0 mm | - | 623 W/m² | - |
| 1778083418 | 17.78° C | 47% | 1015.1 hPa | 0 mm | - | 558 W/m² | - |
| 1778083117 | 17.22° C | 48% | 1015.2 hPa | 0 mm | - | 517 W/m² | - |
| 1778082813 | 17.78° C | 47% | 1014.8 hPa | 0 mm | - | 468 W/m² | - |
| 1778080778 | 16.11° C | 53% | 1015 hPa | 0 mm | - | 297 W/m² | - |
| 1778080475 | 16.11° C | 53% | 1015.2 hPa | 0 mm | - | 294 W/m² | - |
| 1778077447 | 12.78° C | 64% | 1015 hPa | 0 mm | - | 125 W/m² | - |
| 1778076237 | 11.67° C | 68% | 1014.8 hPa | 0 mm | - | 60 W/m² | - |
| 1778075631 | 10° C | 72% | 1014.7 hPa | 0 mm | - | 50 W/m² | - |
| 1778075327 | 9.44° C | 74% | 1014.8 hPa | 0 mm | - | 45 W/m² | - |
| 1778074417 | 8.33° C | 78% | 1014.5 hPa | 0 mm | - | 30 W/m² | - |
| 1778072599 | 9.44° C | 78% | 1014.3 hPa | 0 mm | - | 5 W/m² | - |
* Rain latest hour (hover to see other rain measurements)
** Current wind speed in m/s (hover to see current wind gust speed)